Time;durP1;ratioP1;P1;durP2;ratioP2;P2;SDS_P1;SDS_P2;PMS_P1;PMS_P2;Temp;Humidity;BMP_temperature;BMP_pressure;BME280_temperature;BME280_humidity;BME280_pressure;Samples;Min_cycle;Max_cycle;Signal;HPM_P1;HPM_P2
2024/03/10 00:02:25;;;;;;;18.35;7.35;;;8.40;99.90;;;;;;4994994;28;20033;-76
2024/03/10 00:04:50;;;;;;;17.58;7.53;;;8.50;99.90;;;;;;4995381;28;20030;-76
2024/03/10 00:07:17;;;;;;;15.88;6.80;;;8.50;99.90;;;;;;4995274;28;20034;-76
2024/03/10 00:09:45;;;;;;;17.40;8.25;;;;;;;;;;4995560;28;20022;-76
2024/03/10 00:12:11;;;;;;;14.85;6.82;;;8.50;99.90;;;;;;4997228;28;20113;-76
2024/03/10 00:14:37;;;;;;;15.13;6.90;;;8.50;99.90;;;;;;4995495;28;20034;-76
2024/03/10 00:17:03;;;;;;;16.17;7.10;;;8.50;99.90;;;;;;4995121;28;20080;-76
2024/03/10 00:19:30;;;;;;;16.17;7.70;;;;;;;;;;4995269;28;20018;-76
2024/03/10 00:21:56;;;;;;;14.60;7.00;;;8.50;99.90;;;;;;5028296;28;20371;-76
2024/03/10 00:24:21;;;;;;;15.98;6.75;;;9.00;99.90;;;;;;4995059;28;20023;-76
2024/03/10 00:26:47;;;;;;;17.90;6.78;;;8.50;99.90;;;;;;4996042;28;20504;-76
2024/03/10 00:29:13;;;;;;;16.90;7.40;;;8.40;99.90;;;;;;4994897;28;20034;-76
2024/03/10 00:31:39;;;;;;;15.15;7.07;;;8.40;99.90;;;;;;4995763;28;20101;-76
2024/03/10 00:34:05;;;;;;;18.45;7.32;;;8.40;99.90;;;;;;4995844;28;20446;-76
2024/03/10 00:36:31;;;;;;;16.63;6.80;;;8.40;99.90;;;;;;4994367;28;20022;-75
2024/03/10 00:38:56;;;;;;;15.55;6.65;;;8.40;99.90;;;;;;4994156;28;20509;-75
2024/03/10 00:41:22;;;;;;;16.85;6.90;;;8.40;99.90;;;;;;4996228;28;20034;-75
2024/03/10 00:43:48;;;;;;;19.65;7.75;;;8.30;99.90;;;;;;4994965;28;20053;-75
2024/03/10 00:46:14;;;;;;;15.13;7.05;;;9.50;99.90;;;;;;4995794;28;20490;-74
2024/03/10 00:48:40;;;;;;;15.93;6.88;;;8.20;99.90;;;;;;4995530;28;20033;-74
2024/03/10 00:51:06;;;;;;;17.50;8.07;;;8.20;99.90;;;;;;4993653;28;20514;-75
2024/03/10 00:53:31;;;;;;;18.65;7.38;;;8.10;99.90;;;;;;4994327;28;20061;-76
2024/03/10 00:55:57;;;;;;;18.98;7.40;;;8.10;99.90;;;;;;4993753;28;20030;-77
2024/03/10 00:58:23;;;;;;;15.27;6.97;;;8.10;99.90;;;;;;4993532;28;20073;-76
2024/03/10 01:00:48;;;;;;;17.52;7.50;;;8.10;99.90;;;;;;4993584;28;20057;-75
2024/03/10 01:03:15;;;;;;;17.92;7.20;;;8.10;99.90;;;;;;4994321;28;20046;-75
2024/03/10 01:05:41;;;;;;;16.75;7.05;;;8.10;99.90;;;;;;4995185;28;20034;-74
2024/03/10 01:08:06;;;;;;;17.75;6.95;;;8.20;99.90;;;;;;4994818;28;20030;-75
2024/03/10 01:10:32;;;;;;;15.80;7.05;;;8.20;99.90;;;;;;4995053;28;20035;-74
2024/03/10 01:12:58;;;;;;;16.00;6.97;;;8.20;99.90;;;;;;4995079;28;20061;-75
2024/03/10 01:15:24;;;;;;;16.95;7.00;;;8.10;99.90;;;;;;4994753;28;20054;-75
2024/03/10 01:17:49;;;;;;;17.75;7.82;;;8.20;99.90;;;;;;4995050;28;20450;-75
2024/03/10 01:20:16;;;;;;;15.68;7.25;;;8.20;99.90;;;;;;4994594;28;20045;-75
2024/03/10 01:22:42;;;;;;;17.65;7.30;;;8.20;99.90;;;;;;4994394;28;20101;-75
2024/03/10 01:25:08;;;;;;;17.60;7.60;;;8.20;99.90;;;;;;4994703;28;20061;-75
2024/03/10 01:27:35;;;;;;;14.20;6.47;;;8.20;99.90;;;;;;4994619;28;20026;-77
2024/03/10 01:30:02;;;;;;;17.98;7.30;;;8.10;99.90;;;;;;4993382;28;20412;-76
2024/03/10 01:32:28;;;;;;;15.95;7.50;;;8.10;99.90;;;;;;4994591;28;20025;-76
2024/03/10 01:34:54;;;;;;;16.77;7.47;;;8.10;99.90;;;;;;4994364;28;20471;-76
2024/03/10 01:37:20;;;;;;;14.48;6.65;;;8.10;99.90;;;;;;4995048;28;20022;-76
2024/03/10 01:39:46;;;;;;;14.98;6.00;;;8.00;99.90;;;;;;4994411;28;20537;-76
2024/03/10 01:42:12;;;;;;;20.05;8.05;;;7.90;99.90;;;;;;4994226;28;20018;-76
2024/03/10 01:44:38;;;;;;;16.70;6.47;;;7.90;99.90;;;;;;4994390;28;20062;-76
2024/03/10 01:47:03;;;;;;;17.05;7.30;;;10.20;99.90;;;;;;4993092;28;20027;-76
2024/03/10 01:49:29;;;;;;;16.15;7.00;;;7.80;99.90;;;;;;4992939;28;20058;-76
2024/03/10 01:51:56;;;;;;;16.73;6.80;;;8.00;99.90;;;;;;4994088;28;20026;-76
2024/03/10 01:54:28;;;;;;;16.20;7.00;;;7.70;99.90;;;;;;4992632;28;20029;-76
2024/03/10 01:56:54;;;;;;;17.67;7.35;;;7.70;99.90;;;;;;4994146;28;20023;-76
2024/03/10 01:59:21;;;;;;;16.42;7.80;;;7.70;99.90;;;;;;5025651;28;20398;-75
2024/03/10 02:01:48;;;;;;;17.15;7.72;;;7.70;99.90;;;;;;4992917;28;20029;-75
2024/03/10 02:04:14;;;;;;;21.15;7.72;;;7.70;99.90;;;;;;4994520;28;20030;-76
2024/03/10 02:06:45;;;;;;;18.00;7.53;;;7.70;99.90;;;;;;4993848;28;20105;-76
2024/03/10 02:09:16;;;;;;;16.20;7.47;;;7.70;99.90;;;;;;4994059;28;20426;-76
2024/03/10 02:11:42;;;;;;;18.67;8.15;;;7.80;99.90;;;;;;4994400;28;20555;-76
2024/03/10 02:14:08;;;;;;;18.70;8.00;;;7.80;99.90;;;;;;4994342;28;20041;-76
2024/03/10 02:16:34;;;;;;;18.92;8.10;;;7.80;99.90;;;;;;4992521;28;20113;-75
2024/03/10 02:18:59;;;;;;;21.05;7.70;;;7.80;99.90;;;;;;4992866;28;20021;-76
2024/03/10 02:21:27;;;;;;;19.90;8.07;;;8.20;99.90;;;;;;4997349;28;20065;-76
2024/03/10 02:24:04;;;;;;;18.83;8.02;;;7.80;99.90;;;;;;4998151;28;20022;-75
2024/03/10 02:26:36;;;;;;;19.88;7.65;;;7.80;99.90;;;;;;4997833;28;20019;-76
2024/03/10 02:29:15;;;;;;;16.92;7.30;;;7.80;99.90;;;;;;4996318;28;20054;-76
2024/03/10 02:48:09;;;;;;;19.08;8.27;;;7.80;99.90;;;;;;4998762;28;20434;-76
2024/03/10 02:50:35;;;;;;;16.05;7.93;;;7.80;99.90;;;;;;4996128;28;20029;-76
2024/03/10 02:53:01;;;;;;;19.85;8.20;;;;;;;;;;4995947;28;20034;-76
2024/03/10 02:55:27;;;;;;;23.45;9.05;;;7.80;99.90;;;;;;4997164;28;20039;-76
2024/03/10 02:57:53;;;;;;;18.92;8.30;;;7.70;99.90;;;;;;4997572;28;20483;-77
2024/03/10 03:00:19;;;;;;;21.55;9.07;;;7.80;99.90;;;;;;4997295;28;20027;-77
2024/03/10 03:02:44;;;;;;;21.80;9.20;;;7.80;99.90;;;;;;4997147;28;20371;-74
2024/03/10 03:05:11;;;;;;;17.75;8.68;;;8.70;99.90;;;;;;4995506;28;20033;-74
2024/03/10 03:07:36;;;;;;;22.77;9.00;;;7.80;99.90;;;;;;4996718;28;20026;-74
2024/03/10 03:10:02;;;;;;;19.55;8.95;;;7.70;99.90;;;;;;4996736;28;20445;-74
2024/03/10 03:12:28;;;;;;;22.17;9.13;;;7.70;99.90;;;;;;4995587;28;20513;-75
2024/03/10 03:14:54;;;;;;;20.92;8.93;;;7.70;99.90;;;;;;4995343;28;20023;-76
2024/03/10 03:17:19;;;;;;;23.60;8.98;;;7.70;99.90;;;;;;4999743;28;20437;-79
2024/03/10 03:19:45;;;;;;;23.88;9.32;;;7.70;99.90;;;;;;5000215;28;20033;-79
2024/03/10 03:22:11;;;;;;;22.02;9.05;;;7.70;99.90;;;;;;5001299;28;20022;-79
2024/03/10 03:24:36;;;;;;;22.67;9.70;;;7.70;99.90;;;;;;4999097;28;20034;-79
2024/03/10 03:27:03;;;;;;;21.75;9.73;;;7.70;99.90;;;;;;4999842;28;20033;-79
2024/03/10 03:29:28;;;;;;;19.67;9.32;;;7.70;99.90;;;;;;5000664;28;20117;-79
2024/03/10 03:31:54;;;;;;;20.55;8.68;;;7.70;99.90;;;;;;5000028;28;20054;-79
2024/03/10 03:34:21;;;;;;;23.10;10.20;;;7.70;99.90;;;;;;4999377;28;20121;-79
2024/03/10 03:36:47;;;;;;;22.20;9.95;;;7.70;99.90;;;;;;4999044;28;20023;-82
2024/03/10 03:39:13;;;;;;;23.35;9.70;;;7.60;99.90;;;;;;4998204;28;20025;-79
2024/03/10 03:41:39;;;;;;;25.10;9.38;;;7.60;99.90;;;;;;5001826;28;20010;-79
2024/03/10 03:44:05;;;;;;;20.52;8.88;;;7.50;99.90;;;;;;5001162;28;20102;-81
2024/03/10 03:46:30;;;;;;;23.60;9.38;;;7.60;99.90;;;;;;5001024;28;20014;-79
2024/03/10 03:48:57;;;;;;;24.70;9.85;;;7.50;99.90;;;;;;5000910;28;20030;-81
2024/03/10 03:51:24;;;;;;;21.92;9.43;;;7.50;99.90;;;;;;4999485;28;20034;-82
2024/03/10 03:53:50;;;;;;;24.77;10.55;;;7.50;99.90;;;;;;5000044;28;20053;-82
2024/03/10 03:56:15;;;;;;;23.25;9.93;;;7.50;99.90;;;;;;5000755;28;20026;-81
2024/03/10 03:58:41;;;;;;;24.67;10.27;;;7.50;99.90;;;;;;5001199;28;20073;-79
2024/03/10 04:01:07;;;;;;;23.25;9.98;;;7.70;99.90;;;;;;5000400;28;20030;-80
2024/03/10 04:03:33;;;;;;;19.85;9.18;;;7.50;99.90;;;;;;4999777;28;20061;-80
2024/03/10 04:06:01;;;;;;;26.35;10.60;;;7.40;99.90;;;;;;5000741;28;20030;-81
2024/03/10 04:08:27;;;;;;;22.33;9.30;;;7.30;99.90;;;;;;4999367;28;20026;-80
2024/03/10 04:10:53;;;;;;;19.77;8.80;;;7.30;99.90;;;;;;4999006;28;20076;-80
2024/03/10 04:13:19;;;;;;;20.80;9.48;;;7.30;99.90;;;;;;4999063;28;20023;-80
2024/03/10 04:15:44;;;;;;;22.23;9.23;;;7.20;99.90;;;;;;4998656;28;20029;-82
2024/03/10 04:18:10;;;;;;;24.48;10.43;;;7.20;99.90;;;;;;4997392;28;20027;-80
2024/03/10 04:20:36;;;;;;;23.33;9.52;;;7.10;99.90;;;;;;4999679;28;20097;-81
2024/03/10 04:23:05;;;;;;;21.48;9.98;;;7.10;99.90;;;;;;5000563;28;20030;-81
2024/03/10 04:25:34;;;;;;;20.35;9.30;;;7.00;99.90;;;;;;4998979;28;20045;-80
2024/03/10 04:28:01;;;;;;;24.10;10.73;;;7.00;99.90;;;;;;4999500;28;20053;-82
2024/03/10 04:30:27;;;;;;;23.58;9.90;;;7.00;99.90;;;;;;4999503;28;20191;-81
2024/03/10 04:32:53;;;;;;;21.73;9.57;;;7.00;99.90;;;;;;4999718;28;20042;-80
2024/03/10 04:35:22;;;;;;;25.95;11.05;;;;;;;;;;4997489;28;20026;-79
2024/03/10 04:37:48;;;;;;;24.45;9.65;;;6.90;99.90;;;;;;4996464;28;20505;-78
2024/03/10 04:40:16;;;;;;;26.02;10.60;;;6.90;99.90;;;;;;4996771;28;20026;-79
2024/03/10 04:42:42;;;;;;;26.57;10.33;;;6.80;99.90;;;;;;4997693;28;20033;-80
2024/03/10 04:45:11;;;;;;;25.92;10.73;;;6.90;99.90;;;;;;4996364;28;20026;-79
2024/03/10 04:47:37;;;;;;;;;;;;;;;;;;4996076;28;20014;-79
2024/03/10 04:50:04;;;;;;;20.40;8.98;;;6.70;99.90;;;;;;4998423;28;19913;-80
2024/03/10 04:52:30;;;;;;;25.38;10.43;;;6.80;99.90;;;;;;4996351;28;20121;-79
2024/03/10 04:54:56;;;;;;;21.80;9.48;;;6.70;99.90;;;;;;4996782;28;20023;-79
2024/03/10 04:57:22;;;;;;;22.70;9.80;;;6.70;99.90;;;;;;4998021;28;20014;-80
2024/03/10 04:59:50;;;;;;;25.23;9.93;;;6.70;99.90;;;;;;4996958;28;20482;-80
2024/03/10 05:02:15;;;;;;;23.83;10.30;;;6.70;99.90;;;;;;5031800;28;20398;-79
2024/03/10 05:04:41;;;;;;;25.60;10.98;;;6.70;99.90;;;;;;5000163;28;20026;-80
2024/03/10 05:07:06;;;;;;;20.88;8.95;;;6.70;99.90;;;;;;4998204;28;20030;-80
2024/03/10 05:09:32;;;;;;;23.90;9.30;;;6.60;99.90;;;;;;4997917;28;20023;-81
2024/03/10 05:11:58;;;;;;;21.02;9.23;;;6.60;99.90;;;;;;4998286;28;20034;-80
2024/03/10 05:14:23;;;;;;;23.63;10.07;;;7.40;99.90;;;;;;4996959;28;20476;-81
2024/03/10 05:16:49;;;;;;;19.73;9.00;;;7.10;99.90;;;;;;4998222;28;20022;-83
2024/03/10 05:19:15;;;;;;;24.67;9.57;;;6.50;99.90;;;;;;4998440;28;20481;-82
2024/03/10 05:21:46;;;;;;;21.45;9.02;;;6.50;99.90;;;;;;4998784;28;20033;-81
2024/03/10 05:24:13;;;;;;;23.40;8.77;;;6.50;99.90;;;;;;4998244;28;20018;-82
2024/03/10 05:26:39;;;;;;;19.38;8.60;;;6.50;99.90;;;;;;4997958;28;20565;-82
2024/03/10 05:29:04;;;;;;;21.33;9.18;;;6.40;99.90;;;;;;4997974;28;20068;-81
2024/03/10 05:31:32;;;;;;;21.33;9.52;;;6.40;99.90;;;;;;4997789;28;20026;-80
2024/03/10 05:33:59;;;;;;;22.67;9.85;;;6.40;99.90;;;;;;4996916;28;20019;-82
2024/03/10 05:36:28;;;;;;;24.60;9.75;;;6.40;99.90;;;;;;4998514;28;20031;-81
2024/03/10 05:38:54;;;;;;;21.85;9.85;;;6.40;99.90;;;;;;4999159;28;20026;-83
2024/03/10 05:41:20;;;;;;;22.40;9.38;;;6.40;99.90;;;;;;5001054;28;20109;-80
2024/03/10 05:43:46;;;;;;;21.75;9.43;;;6.40;99.90;;;;;;5001023;28;20576;-80
2024/03/10 05:46:12;;;;;;;25.73;10.45;;;6.40;99.90;;;;;;4999701;28;20025;-81
2024/03/10 05:48:39;;;;;;;22.30;8.95;;;6.40;99.90;;;;;;5000291;28;20449;-80
2024/03/10 05:51:04;;;;;;;23.17;9.32;;;7.20;99.90;;;;;;4997054;28;20053;-81
2024/03/10 05:53:30;;;;;;;23.90;9.73;;;6.30;99.90;;;;;;4996488;28;20018;-79
2024/03/10 05:55:56;;;;;;;22.02;10.20;;;6.70;99.90;;;;;;5000796;28;20038;-79
2024/03/10 05:58:22;;;;;;;23.42;9.00;;;7.80;99.90;;;;;;5002385;28;20015;-80
2024/03/10 06:00:51;;;;;;;25.27;10.68;;;6.30;99.90;;;;;;5002909;28;20050;-80
2024/03/10 06:03:20;;;;;;;21.10;9.23;;;;;;;;;;5002587;28;20022;-79
2024/03/10 06:05:46;;;;;;;25.65;10.90;;;6.30;99.90;;;;;;5032753;28;20026;-77
2024/03/10 06:08:12;;;;;;;20.55;9.20;;;6.40;99.90;;;;;;4998676;28;20026;-76
2024/03/10 06:10:41;;;;;;;25.73;10.90;;;6.30;99.90;;;;;;4998478;28;20045;-76
2024/03/10 06:13:07;;;;;;;23.67;10.02;;;6.40;99.90;;;;;;4998504;28;20062;-75
2024/03/10 06:15:33;;;;;;;24.58;9.57;;;6.30;99.90;;;;;;4999057;28;20026;-75
2024/03/10 06:18:15;;;;;;;21.58;9.95;;;6.40;99.90;;;;;;5000744;28;20054;-77
2024/03/10 06:26:14;;;;;;;24.27;8.77;;;6.30;99.90;;;;;;5001745;28;20465;-76
2024/03/10 06:28:40;;;;;;;23.15;9.55;;;6.30;99.90;;;;;;5006944;28;20149;-77
2024/03/10 06:31:06;;;;;;;24.65;10.20;;;6.30;99.90;;;;;;4998681;28;20031;-77
2024/03/10 06:33:35;;;;;;;23.77;9.68;;;6.30;99.90;;;;;;4998808;28;20026;-77
2024/03/10 06:36:08;;;;;;;23.20;9.38;;;6.30;99.90;;;;;;4999395;28;20061;-76
2024/03/10 06:38:38;;;;;;;21.73;8.63;;;6.30;99.90;;;;;;4997382;28;20105;-77
2024/03/10 06:41:07;;;;;;;23.67;9.30;;;6.30;99.90;;;;;;4998894;28;20049;-76
2024/03/10 06:43:34;;;;;;;23.27;9.60;;;6.30;99.90;;;;;;4999043;28;20475;-76
2024/03/10 06:46:00;;;;;;;20.83;8.68;;;6.90;99.90;;;;;;4998729;28;20019;-76
2024/03/10 06:48:26;;;;;;;24.83;10.02;;;6.30;99.90;;;;;;4997962;28;20097;-76
2024/03/10 06:50:54;;;;;;;22.00;9.48;;;6.30;99.90;;;;;;4998754;28;20479;-76
2024/03/10 06:53:20;;;;;;;22.85;9.35;;;6.30;99.90;;;;;;4997220;28;20505;-76
2024/03/10 06:55:46;;;;;;;24.27;10.50;;;6.40;99.90;;;;;;4997323;28;20038;-76
2024/03/10 06:58:11;;;;;;;22.48;8.20;;;6.40;99.90;;;;;;4998460;28;20479;-76
2024/03/10 07:00:39;;;;;;;23.85;9.75;;;6.40;99.90;;;;;;4998188;28;20053;-76
2024/03/10 07:03:05;;;;;;;21.85;9.15;;;6.40;99.90;;;;;;4998359;28;20046;-76
2024/03/10 07:05:33;;;;;;;22.83;9.15;;;6.50;99.90;;;;;;4998973;28;20058;-76
2024/03/10 07:08:00;;;;;;;22.48;9.55;;;6.50;99.90;;;;;;4998098;28;20113;-75
2024/03/10 07:10:29;;;;;;;24.05;8.52;;;6.50;99.90;;;;;;4998322;28;20026;-75
2024/03/10 07:12:55;;;;;;;21.88;8.60;;;6.50;99.90;;;;;;5029287;28;20449;-75
2024/03/10 07:15:20;;;;;;;26.30;9.50;;;6.60;99.90;;;;;;4996328;28;20042;-75
2024/03/10 07:17:46;;;;;;;25.77;9.68;;;6.80;99.90;;;;;;4996215;28;20389;-75
2024/03/10 07:20:12;;;;;;;19.60;8.43;;;6.80;99.90;;;;;;4997462;28;20033;-75
2024/03/10 07:22:38;;;;;;;24.60;10.45;;;6.90;99.90;;;;;;4996571;28;20485;-75
2024/03/10 07:25:10;;;;;;;21.45;9.80;;;6.90;99.90;;;;;;4997988;28;20027;-75
2024/03/10 07:27:36;;;;;;;19.33;8.50;;;7.00;99.90;;;;;;4996420;28;20061;-75
2024/03/10 07:30:04;;;;;;;20.60;8.38;;;7.10;99.90;;;;;;4996359;28;20026;-75
2024/03/10 07:32:31;;;;;;;20.35;8.52;;;7.20;99.90;;;;;;4997983;28;20052;-75
2024/03/10 07:35:00;;;;;;;20.52;8.75;;;7.20;99.90;;;;;;4998003;28;20045;-75
2024/03/10 07:37:27;;;;;;;18.00;8.18;;;7.30;99.90;;;;;;4997425;28;20026;-75
2024/03/10 07:39:53;;;;;;;20.83;8.55;;;7.40;99.90;;;;;;4995978;28;20025;-75
2024/03/10 07:42:19;;;;;;;21.45;8.68;;;7.50;99.90;;;;;;4995924;28;20022;-75
2024/03/10 07:44:45;;;;;;;20.73;8.90;;;7.50;99.90;;;;;;4997621;28;20022;-75
2024/03/10 07:47:11;;;;;;;20.50;8.60;;;7.60;99.90;;;;;;4997229;28;20022;-75
2024/03/10 07:49:37;;;;;;;21.90;8.75;;;7.70;99.90;;;;;;4996130;28;20510;-78
2024/03/10 07:52:05;;;;;;;18.75;8.15;;;;;;;;;;4995773;28;20057;-78
2024/03/10 07:54:31;;;;;;;20.45;8.13;;;7.80;99.90;;;;;;5000229;28;20022;-79
2024/03/10 07:56:57;;;;;;;18.95;8.15;;;7.90;99.90;;;;;;4999576;28;20050;-80
2024/03/10 07:59:23;;;;;;;19.33;8.48;;;7.90;99.90;;;;;;4999623;28;20379;-79
2024/03/10 08:01:50;;;;;;;23.00;8.80;;;8.00;99.90;;;;;;5001828;28;20019;-79
2024/03/10 08:04:19;;;;;;;20.25;7.97;;;8.10;99.90;;;;;;5000916;28;20085;-80
2024/03/10 08:06:45;;;;;;;;;;;8.10;99.90;;;;;;5002718;28;20482;-79
2024/03/10 08:09:15;;;;;;;18.83;7.70;;;8.20;99.90;;;;;;5002415;28;19916;-79
2024/03/10 08:11:42;;;;;;;19.40;8.20;;;8.20;99.90;;;;;;5002198;28;20050;-79
2024/03/10 08:14:08;;;;;;;19.58;8.98;;;8.30;99.90;;;;;;5001861;28;20061;-81
2024/03/10 08:16:34;;;;;;;19.77;8.73;;;8.30;99.90;;;;;;5003036;28;20018;-86
2024/03/10 08:19:00;;;;;;;20.33;8.35;;;8.40;99.90;;;;;;5000963;28;20018;-85
2024/03/10 08:21:26;;;;;;;18.35;8.18;;;8.40;99.90;;;;;;5002665;28;20023;-86
2024/03/10 08:23:52;;;;;;;18.38;8.07;;;8.60;99.90;;;;;;5002289;28;20056;-86
2024/03/10 08:26:18;;;;;;;18.30;7.65;;;8.50;99.90;;;;;;5001007;28;20390;-85
2024/03/10 08:28:44;;;;;;;18.67;8.05;;;;;;;;;;5000231;28;20042;-86
2024/03/10 08:31:14;;;;;;;16.95;7.85;;;8.80;99.90;;;;;;5033234;28;20045;-84
2024/03/10 08:33:40;;;;;;;17.08;7.22;;;;;;;;;;5002218;28;20053;-89
2024/03/10 08:36:08;;;;;;;17.13;7.20;;;9.00;99.90;;;;;;5034729;28;20122;-87
2024/03/10 08:38:34;;;;;;;17.38;7.57;;;;;;;;;;5002180;28;20378;-81
2024/03/10 08:41:00;;;;;;;18.83;7.63;;;9.10;99.90;;;;;;5034838;28;20441;-82
2024/03/10 08:43:28;;;;;;;16.10;6.65;;;9.20;99.90;;;;;;5002174;28;20390;-82
2024/03/10 08:45:54;;;;;;;17.23;8.00;;;9.30;99.90;;;;;;4999617;28;20014;-82
2024/03/10 08:48:20;;;;;;;17.10;7.00;;;9.30;99.90;;;;;;5000188;28;20028;-80
2024/03/10 08:50:46;;;;;;;16.02;6.95;;;9.40;99.90;;;;;;5001211;28;20468;-80
2024/03/10 08:53:13;;;;;;;16.40;7.35;;;9.40;99.90;;;;;;5001279;28;20033;-80
2024/03/10 08:55:39;;;;;;;17.80;7.57;;;9.50;99.90;;;;;;4998864;28;20018;-80
2024/03/10 08:58:04;;;;;;;19.00;6.70;;;9.50;99.90;;;;;;5001000;28;20088;-80
2024/03/10 09:00:31;;;;;;;18.98;7.80;;;9.60;99.90;;;;;;5000644;28;20022;-80
2024/03/10 09:02:57;;;;;;;15.07;6.53;;;9.60;99.90;;;;;;5000158;28;20018;-81
2024/03/10 09:05:23;;;;;;;15.80;6.88;;;9.70;99.90;;;;;;4998893;28;20064;-81
2024/03/10 09:07:50;;;;;;;16.30;6.90;;;9.90;99.90;;;;;;5000886;28;20025;-80
2024/03/10 09:10:16;;;;;;;16.40;7.55;;;10.00;99.90;;;;;;4999658;28;20053;-80
2024/03/10 09:12:42;;;;;;;11.73;6.00;;;10.00;99.90;;;;;;4999571;28;20026;-81
2024/03/10 09:15:09;;;;;;;15.98;6.95;;;10.00;99.90;;;;;;4998973;28;20027;-81
2024/03/10 09:17:38;;;;;;;16.75;6.95;;;10.10;99.90;;;;;;5000107;28;20390;-80
2024/03/10 09:20:11;;;;;;;17.85;7.07;;;10.20;99.90;;;;;;4999743;28;20014;-81
2024/03/10 09:22:45;;;;;;;16.27;6.43;;;10.20;99.90;;;;;;5000473;28;20065;-81
2024/03/10 09:25:21;;;;;;;16.27;7.20;;;10.20;99.90;;;;;;4999083;28;20018;-81
2024/03/10 09:27:53;;;;;;;14.18;6.43;;;10.20;99.90;;;;;;5001086;28;20037;-81
2024/03/10 09:30:23;;;;;;;18.95;6.70;;;10.30;99.90;;;;;;4998910;28;20058;-81
2024/03/10 09:32:50;;;;;;;15.63;6.45;;;10.30;99.90;;;;;;5031172;28;20530;-78
2024/03/10 09:35:24;;;;;;;13.82;6.10;;;10.40;99.90;;;;;;4998726;28;20109;-79
2024/03/10 09:37:51;;;;;;;15.05;6.35;;;10.30;99.90;;;;;;4998261;28;20052;-79
2024/03/10 09:40:17;;;;;;;13.32;6.15;;;10.40;99.90;;;;;;4997563;28;20030;-78
2024/03/10 09:42:43;;;;;;;14.98;6.90;;;10.50;99.90;;;;;;4997423;28;20393;-78
2024/03/10 09:45:17;;;;;;;16.30;7.45;;;10.50;99.90;;;;;;4997220;28;20517;-79
2024/03/10 09:47:48;;;;;;;14.38;6.63;;;10.60;99.90;;;;;;4996402;28;20125;-79
2024/03/10 09:50:21;;;;;;;15.75;7.32;;;10.60;99.90;;;;;;5030378;28;20053;-79
2024/03/10 09:52:50;;;;;;;17.10;6.45;;;10.60;99.90;;;;;;4998358;28;20041;-79
2024/03/10 09:55:16;;;;;;;;;;;10.70;99.90;;;;;;4998762;28;20026;-79
2024/03/10 09:57:43;;;;;;;13.55;5.75;;;10.80;99.90;;;;;;4998585;28;19906;-78
2024/03/10 10:00:13;;;;;;;15.27;6.72;;;10.90;99.90;;;;;;4999247;28;20090;-79
2024/03/10 10:02:42;;;;;;;14.57;6.60;;;10.90;99.90;;;;;;4998410;28;20022;-79
2024/03/10 10:05:29;;;;;;;14.13;6.60;;;11.00;99.90;;;;;;4997842;28;20018;-80
2024/03/10 10:07:56;;;;;;;16.08;7.35;;;11.10;99.90;;;;;;4997976;28;20033;-79
2024/03/10 10:10:21;;;;;;;13.82;6.50;;;11.30;99.90;;;;;;5000038;28;20109;-79
2024/03/10 10:12:53;;;;;;;14.70;6.50;;;11.40;99.90;;;;;;5000028;28;20065;-79
2024/03/10 10:15:22;;;;;;;13.55;6.35;;;11.50;99.90;;;;;;4999685;28;20135;-80
2024/03/10 10:17:54;;;;;;;;;;;11.50;99.90;;;;;;4999843;28;20026;-80
2024/03/10 10:20:25;;;;;;;17.88;7.05;;;11.60;99.90;;;;;;4999775;28;19905;-80
2024/03/10 10:22:55;;;;;;;14.25;5.97;;;11.70;99.90;;;;;;5000156;28;20031;-79
2024/03/10 10:25:25;;;;;;;13.68;6.18;;;11.90;99.90;;;;;;4999397;28;20034;-80
2024/03/10 10:27:52;;;;;;;14.35;5.65;;;12.10;99.90;;;;;;5002353;28;20026;-79
2024/03/10 10:30:22;;;;;;;13.27;5.97;;;12.10;99.90;;;;;;5000992;28;20494;-79
2024/03/10 10:32:50;;;;;;;12.32;6.15;;;12.30;99.90;;;;;;5001803;28;20137;-79
2024/03/10 10:35:18;;;;;;;13.03;5.90;;;12.40;99.90;;;;;;5001502;28;20018;-80
2024/03/10 10:37:46;;;;;;;16.25;7.00;;;12.70;99.90;;;;;;5002471;28;20042;-79
2024/03/10 10:40:12;;;;;;;15.20;6.70;;;12.70;99.90;;;;;;5002964;28;20044;-79
2024/03/10 10:42:38;;;;;;;14.85;6.38;;;12.70;99.90;;;;;;5002355;28;20493;-79
2024/03/10 10:45:09;;;;;;;16.27;6.57;;;12.70;99.90;;;;;;5000869;28;20105;-79
2024/03/10 10:47:36;;;;;;;14.15;6.22;;;12.80;99.90;;;;;;5000983;28;20470;-79
2024/03/10 10:50:02;;;;;;;16.08;6.88;;;12.80;99.90;;;;;;5000200;28;20442;-80
2024/03/10 10:52:27;;;;;;;13.68;5.97;;;12.80;99.90;;;;;;5000256;28;20026;-80
2024/03/10 10:54:53;;;;;;;15.45;6.35;;;;;;;;;;5003277;28;20026;-79
2024/03/10 10:57:19;;;;;;;15.43;5.85;;;12.80;99.90;;;;;;5035094;28;20437;-79
2024/03/10 10:59:48;;;;;;;14.32;6.45;;;12.80;99.90;;;;;;5003824;28;20015;-79
2024/03/10 11:02:19;;;;;;;14.07;6.32;;;12.90;99.90;;;;;;5000894;28;20026;-78
2024/03/10 11:04:46;;;;;;;13.55;5.20;;;12.90;99.90;;;;;;4999222;28;20024;-78
2024/03/10 11:07:15;;;;;;;11.68;5.78;;;12.90;99.90;;;;;;4998616;28;20022;-78
2024/03/10 11:09:41;;;;;;;14.25;6.32;;;13.10;99.90;;;;;;4999009;28;20462;-78
2024/03/10 11:12:21;;;;;;;14.85;6.47;;;13.20;99.90;;;;;;4998836;28;20084;-78
2024/03/10 11:14:52;;;;;;;12.82;5.82;;;;;;;;;;4997415;28;20033;-78
2024/03/10 11:17:19;;;;;;;15.55;6.03;;;13.40;99.90;;;;;;4998916;28;20030;-78
2024/03/10 11:19:47;;;;;;;13.77;5.72;;;13.50;99.90;;;;;;4998239;28;20010;-78
2024/03/10 11:22:12;;;;;;;14.65;7.15;;;13.70;99.90;;;;;;4997252;28;20023;-78
2024/03/10 11:24:39;;;;;;;15.40;5.95;;;13.80;99.90;;;;;;4998200;28;20026;-78
2024/03/10 11:27:21;;;;;;;15.23;6.25;;;13.80;99.90;;;;;;4997987;28;20022;-76
2024/03/10 11:29:48;;;;;;;14.65;7.18;;;13.90;99.90;;;;;;5028218;28;20034;-76
2024/03/10 11:32:33;;;;;;;16.95;6.68;;;13.80;99.90;;;;;;4996793;28;20471;-76
2024/03/10 11:35:07;;;;;;;12.63;6.15;;;13.80;99.90;;;;;;4996993;28;20030;-77
2024/03/10 11:37:37;;;;;;;13.52;5.72;;;13.80;99.90;;;;;;4997116;28;20023;-76
2024/03/10 11:40:04;;;;;;;14.43;6.00;;;13.90;99.90;;;;;;4996699;28;20022;-74
2024/03/10 11:42:31;;;;;;;14.65;6.72;;;13.90;99.90;;;;;;4997021;28;20025;-76
2024/03/10 11:44:58;;;;;;;16.13;7.00;;;13.90;99.90;;;;;;4996227;28;20117;-76
2024/03/10 11:47:24;;;;;;;15.00;6.20;;;13.90;99.90;;;;;;4996321;28;20019;-75
2024/03/10 11:49:50;;;;;;;12.57;6.40;;;13.90;99.90;;;;;;4995133;28;20023;-75
2024/03/10 11:52:20;;;;;;;13.13;6.30;;;14.00;99.90;;;;;;4995182;28;20033;-76
2024/03/10 11:54:59;;;;;;;13.85;5.78;;;14.00;99.90;;;;;;4994470;28;20033;-76
2024/03/10 11:57:26;;;;;;;12.30;6.40;;;14.10;99.90;;;;;;4995826;28;20368;-76
2024/03/10 11:59:58;;;;;;;21.42;6.78;;;14.20;99.90;;;;;;4995872;28;20509;-76
2024/03/10 12:02:25;;;;;;;20.08;6.32;;;14.20;99.90;;;;;;4996506;28;20029;-76
2024/03/10 12:04:54;;;;;;;14.50;5.43;;;14.40;99.90;;;;;;4994510;28;20022;-76
2024/03/10 12:07:20;;;;;;;13.13;6.20;;;14.50;99.90;;;;;;4994487;28;20030;-76
2024/03/10 12:09:46;;;;;;;13.32;6.78;;;14.60;99.90;;;;;;4994442;28;20035;-76
2024/03/10 12:12:13;;;;;;;12.77;6.18;;;14.70;99.90;;;;;;4995248;28;20106;-76
2024/03/10 12:14:43;;;;;;;12.95;6.28;;;14.90;99.90;;;;;;4995650;28;20483;-76
2024/03/10 12:17:15;;;;;;;13.45;5.72;;;15.30;99.90;;;;;;4995440;28;20022;-76
2024/03/10 12:19:44;;;;;;;13.43;6.40;;;15.40;99.90;;;;;;4995502;28;20027;-76
2024/03/10 12:22:11;;;;;;;12.90;5.50;;;15.70;99.50;;;;;;4995411;28;20022;-76
2024/03/10 12:24:41;;;;;;;13.32;6.15;;;15.70;99.80;;;;;;4995694;28;20030;-76
2024/03/10 12:27:10;;;;;;;11.75;5.35;;;15.80;99.40;;;;;;4994471;28;20490;-76
2024/03/10 12:29:45;;;;;;;14.05;6.20;;;15.90;98.60;;;;;;4995508;28;20491;-76
2024/03/10 12:32:13;;;;;;;12.90;5.18;;;15.90;97.80;;;;;;4995591;28;20026;-75
2024/03/10 12:34:39;;;;;;;11.73;6.18;;;16.00;97.80;;;;;;4993503;28;20466;-76
2024/03/10 12:37:05;;;;;;;13.05;6.03;;;15.90;98.10;;;;;;4993795;28;20046;-76
2024/03/10 12:39:31;;;;;;;11.63;6.32;;;16.00;98.20;;;;;;4994684;28;20029;-76
2024/03/10 12:41:57;;;;;;;15.23;6.43;;;16.00;98.40;;;;;;4993827;28;20223;-75
2024/03/10 12:44:23;;;;;;;13.10;6.22;;;16.00;98.80;;;;;;4995202;28;20030;-76
2024/03/10 12:46:49;;;;;;;12.60;5.80;;;15.90;98.20;;;;;;4995295;28;20558;-77
2024/03/10 12:49:15;;;;;;;12.13;6.38;;;;;;;;;;4994866;28;20014;-76
2024/03/10 12:51:41;;;;;;;13.00;6.93;;;15.90;98.30;;;;;;5026678;28;20031;-76
2024/03/10 12:54:07;;;;;;;13.85;6.45;;;15.70;98.10;;;;;;4995105;28;20014;-76
2024/03/10 12:56:35;;;;;;;14.02;6.15;;;15.70;98.40;;;;;;4995141;28;20521;-76
2024/03/10 12:59:03;;;;;;;14.82;7.03;;;15.50;98.40;;;;;;4994762;28;20478;-76
2024/03/10 13:01:34;;;;;;;12.10;5.77;;;15.50;98.60;;;;;;4995002;28;20101;-76
2024/03/10 13:04:00;;;;;;;16.80;7.38;;;15.70;98.50;;;;;;5026099;28;20529;-76
2024/03/10 13:06:27;;;;;;;12.82;6.03;;;15.80;98.30;;;;;;4995101;28;20058;-76
2024/03/10 13:08:53;;;;;;;14.82;6.25;;;16.00;97.70;;;;;;4993803;28;20030;-77
2024/03/10 13:11:26;;;;;;;14.27;6.40;;;16.10;98.00;;;;;;4993505;28;20386;-76